sensor_id;sensor_type;location;lat;lon;timestamp;P1;durP1;ratioP1;P2;durP2;ratioP2
239;SDS011;104;53.590;10.004;2024-02-26T00:01:49;51.40;;;20.70;;
239;SDS011;104;53.590;10.004;2024-02-26T00:04:16;48.30;;;21.30;;
239;SDS011;104;53.590;10.004;2024-02-26T00:06:43;49.10;;;20.97;;
239;SDS011;104;53.590;10.004;2024-02-26T00:09:12;63.93;;;22.80;;
239;SDS011;104;53.590;10.004;2024-02-26T00:11:39;53.73;;;22.33;;
239;SDS011;104;53.590;10.004;2024-02-26T00:14:06;53.13;;;22.37;;
239;SDS011;104;53.590;10.004;2024-02-26T00:16:34;49.50;;;20.80;;
239;SDS011;104;53.590;10.004;2024-02-26T00:19:01;57.47;;;23.30;;
239;SDS011;104;53.590;10.004;2024-02-26T00:21:28;57.93;;;24.37;;
239;SDS011;104;53.590;10.004;2024-02-26T00:23:55;55.53;;;22.00;;
239;SDS011;104;53.590;10.004;2024-02-26T00:26:24;49.83;;;21.83;;
239;SDS011;104;53.590;10.004;2024-02-26T00:28:51;55.13;;;21.77;;
239;SDS011;104;53.590;10.004;2024-02-26T00:31:18;54.87;;;22.30;;
239;SDS011;104;53.590;10.004;2024-02-26T00:33:45;56.70;;;23.33;;
239;SDS011;104;53.590;10.004;2024-02-26T00:36:12;63.87;;;24.47;;
239;SDS011;104;53.590;10.004;2024-02-26T00:38:40;55.97;;;23.50;;
239;SDS011;104;53.590;10.004;2024-02-26T00:41:08;54.90;;;21.37;;
239;SDS011;104;53.590;10.004;2024-02-26T00:43:36;52.57;;;21.70;;
239;SDS011;104;53.590;10.004;2024-02-26T00:46:05;58.00;;;22.60;;
239;SDS011;104;53.590;10.004;2024-02-26T00:48:32;57.77;;;22.83;;
239;SDS011;104;53.590;10.004;2024-02-26T00:50:59;54.07;;;23.00;;
239;SDS011;104;53.590;10.004;2024-02-26T00:53:27;53.40;;;21.27;;
239;SDS011;104;53.590;10.004;2024-02-26T00:55:54;54.50;;;22.23;;
239;SDS011;104;53.590;10.004;2024-02-26T00:58:21;62.43;;;23.33;;
239;SDS011;104;53.590;10.004;2024-02-26T01:00:50;61.83;;;23.87;;
239;SDS011;104;53.590;10.004;2024-02-26T01:03:17;59.63;;;23.00;;
239;SDS011;104;53.590;10.004;2024-02-26T01:05:44;59.90;;;24.00;;
239;SDS011;104;53.590;10.004;2024-02-26T01:08:11;63.90;;;24.23;;
239;SDS011;104;53.590;10.004;2024-02-26T01:10:39;59.80;;;23.80;;
239;SDS011;104;53.590;10.004;2024-02-26T01:13:06;56.73;;;22.27;;
239;SDS011;104;53.590;10.004;2024-02-26T01:15:33;58.33;;;23.57;;
239;SDS011;104;53.590;10.004;2024-02-26T01:18:02;56.97;;;23.30;;
239;SDS011;104;53.590;10.004;2024-02-26T01:20:29;53.27;;;21.17;;
239;SDS011;104;53.590;10.004;2024-02-26T01:22:56;47.43;;;18.53;;
239;SDS011;104;53.590;10.004;2024-02-26T01:25:24;42.83;;;18.67;;
239;SDS011;104;53.590;10.004;2024-02-26T01:27:51;44.73;;;19.07;;
239;SDS011;104;53.590;10.004;2024-02-26T01:30:18;52.10;;;19.13;;
239;SDS011;104;53.590;10.004;2024-02-26T01:32:45;45.10;;;18.23;;
239;SDS011;104;53.590;10.004;2024-02-26T01:35:14;58.30;;;18.23;;
239;SDS011;104;53.590;10.004;2024-02-26T01:37:41;40.60;;;16.43;;
239;SDS011;104;53.590;10.004;2024-02-26T01:40:09;40.30;;;16.93;;
239;SDS011;104;53.590;10.004;2024-02-26T01:42:37;43.80;;;16.03;;
239;SDS011;104;53.590;10.004;2024-02-26T01:45:06;37.90;;;16.00;;
239;SDS011;104;53.590;10.004;2024-02-26T01:47:34;41.47;;;17.40;;
239;SDS011;104;53.590;10.004;2024-02-26T01:50:02;31.43;;;14.77;;
239;SDS011;104;53.590;10.004;2024-02-26T01:52:30;36.87;;;15.10;;
239;SDS011;104;53.590;10.004;2024-02-26T01:54:58;42.00;;;15.37;;
239;SDS011;104;53.590;10.004;2024-02-26T01:57:26;39.90;;;16.03;;
239;SDS011;104;53.590;10.004;2024-02-26T01:59:54;46.80;;;17.57;;
239;SDS011;104;53.590;10.004;2024-02-26T02:02:21;45.37;;;17.03;;
239;SDS011;104;53.590;10.004;2024-02-26T02:04:49;45.23;;;16.70;;
239;SDS011;104;53.590;10.004;2024-02-26T02:07:16;39.87;;;16.67;;
239;SDS011;104;53.590;10.004;2024-02-26T02:09:44;36.20;;;15.43;;
239;SDS011;104;53.590;10.004;2024-02-26T02:12:12;42.67;;;16.97;;
239;SDS011;104;53.590;10.004;2024-02-26T02:14:39;38.27;;;15.47;;
239;SDS011;104;53.590;10.004;2024-02-26T02:17:07;34.07;;;14.60;;
239;SDS011;104;53.590;10.004;2024-02-26T02:19:34;36.37;;;14.20;;
239;SDS011;104;53.590;10.004;2024-02-26T02:22:02;40.50;;;15.50;;
239;SDS011;104;53.590;10.004;2024-02-26T02:24:29;38.83;;;13.97;;
239;SDS011;104;53.590;10.004;2024-02-26T02:26:57;41.53;;;15.77;;
239;SDS011;104;53.590;10.004;2024-02-26T02:29:24;33.00;;;13.60;;
239;SDS011;104;53.590;10.004;2024-02-26T02:31:52;33.23;;;13.27;;
239;SDS011;104;53.590;10.004;2024-02-26T02:34:20;33.30;;;13.30;;
239;SDS011;104;53.590;10.004;2024-02-26T02:36:48;36.63;;;14.90;;
239;SDS011;104;53.590;10.004;2024-02-26T02:39:17;33.40;;;14.17;;
239;SDS011;104;53.590;10.004;2024-02-26T02:41:44;32.00;;;12.87;;
239;SDS011;104;53.590;10.004;2024-02-26T02:44:11;34.30;;;13.97;;
239;SDS011;104;53.590;10.004;2024-02-26T02:46:39;48.23;;;15.10;;
239;SDS011;104;53.590;10.004;2024-02-26T02:49:07;32.70;;;13.73;;
239;SDS011;104;53.590;10.004;2024-02-26T02:51:35;33.20;;;13.50;;
239;SDS011;104;53.590;10.004;2024-02-26T02:54:03;31.33;;;13.93;;
239;SDS011;104;53.590;10.004;2024-02-26T02:56:31;36.80;;;14.83;;
239;SDS011;104;53.590;10.004;2024-02-26T02:58:59;38.87;;;13.30;;
239;SDS011;104;53.590;10.004;2024-02-26T03:01:26;34.70;;;13.73;;
239;SDS011;104;53.590;10.004;2024-02-26T03:03:53;33.27;;;13.80;;
239;SDS011;104;53.590;10.004;2024-02-26T03:06:20;38.63;;;14.17;;
239;SDS011;104;53.590;10.004;2024-02-26T03:08:48;29.10;;;13.10;;
239;SDS011;104;53.590;10.004;2024-02-26T03:11:15;33.30;;;13.97;;
239;SDS011;104;53.590;10.004;2024-02-26T03:13:44;35.73;;;14.20;;
239;SDS011;104;53.590;10.004;2024-02-26T03:16:11;30.27;;;12.50;;
239;SDS011;104;53.590;10.004;2024-02-26T03:18:38;32.97;;;13.83;;
239;SDS011;104;53.590;10.004;2024-02-26T03:21:05;35.50;;;13.83;;
239;SDS011;104;53.590;10.004;2024-02-26T03:23:33;31.07;;;12.77;;
239;SDS011;104;53.590;10.004;2024-02-26T03:26:03;30.30;;;12.33;;
239;SDS011;104;53.590;10.004;2024-02-26T03:28:30;30.93;;;12.40;;
239;SDS011;104;53.590;10.004;2024-02-26T03:31:00;32.80;;;12.70;;
239;SDS011;104;53.590;10.004;2024-02-26T03:33:28;32.70;;;13.20;;
239;SDS011;104;53.590;10.004;2024-02-26T03:35:55;31.40;;;13.20;;
239;SDS011;104;53.590;10.004;2024-02-26T03:38:21;28.80;;;12.80;;
239;SDS011;104;53.590;10.004;2024-02-26T03:40:48;29.20;;;13.17;;
239;SDS011;104;53.590;10.004;2024-02-26T03:43:16;25.47;;;11.77;;
239;SDS011;104;53.590;10.004;2024-02-26T03:45:43;30.07;;;11.87;;
239;SDS011;104;53.590;10.004;2024-02-26T03:48:12;28.67;;;12.17;;
239;SDS011;104;53.590;10.004;2024-02-26T03:50:39;30.97;;;12.40;;
239;SDS011;104;53.590;10.004;2024-02-26T03:53:06;34.80;;;13.80;;
239;SDS011;104;53.590;10.004;2024-02-26T03:55:34;33.93;;;12.90;;
239;SDS011;104;53.590;10.004;2024-02-26T03:58:02;28.73;;;12.50;;
239;SDS011;104;53.590;10.004;2024-02-26T04:00:29;29.57;;;11.83;;
239;SDS011;104;53.590;10.004;2024-02-26T04:02:56;29.37;;;11.80;;
239;SDS011;104;53.590;10.004;2024-02-26T04:05:25;31.63;;;12.13;;
239;SDS011;104;53.590;10.004;2024-02-26T04:07:52;24.30;;;12.00;;
239;SDS011;104;53.590;10.004;2024-02-26T04:10:19;21.20;;;10.47;;
239;SDS011;104;53.590;10.004;2024-02-26T04:12:47;26.13;;;12.43;;
239;SDS011;104;53.590;10.004;2024-02-26T04:15:14;29.43;;;12.23;;
239;SDS011;104;53.590;10.004;2024-02-26T04:17:41;25.80;;;11.40;;
239;SDS011;104;53.590;10.004;2024-02-26T04:20:12;26.50;;;11.67;;
239;SDS011;104;53.590;10.004;2024-02-26T04:22:41;29.63;;;12.23;;
239;SDS011;104;53.590;10.004;2024-02-26T04:25:09;28.00;;;11.60;;
239;SDS011;104;53.590;10.004;2024-02-26T04:27:36;31.07;;;13.27;;
239;SDS011;104;53.590;10.004;2024-02-26T04:30:04;31.23;;;12.90;;
239;SDS011;104;53.590;10.004;2024-02-26T04:32:31;29.20;;;12.37;;
239;SDS011;104;53.590;10.004;2024-02-26T04:34:59;35.90;;;13.53;;
239;SDS011;104;53.590;10.004;2024-02-26T04:37:26;34.10;;;12.80;;
239;SDS011;104;53.590;10.004;2024-02-26T04:39:57;29.40;;;12.27;;
239;SDS011;104;53.590;10.004;2024-02-26T04:42:24;26.53;;;11.73;;
239;SDS011;104;53.590;10.004;2024-02-26T04:44:52;29.03;;;12.10;;
239;SDS011;104;53.590;10.004;2024-02-26T04:47:19;28.80;;;12.20;;
239;SDS011;104;53.590;10.004;2024-02-26T04:49:47;31.80;;;12.80;;
239;SDS011;104;53.590;10.004;2024-02-26T04:52:14;29.47;;;11.80;;
239;SDS011;104;53.590;10.004;2024-02-26T04:54:41;28.80;;;12.53;;
239;SDS011;104;53.590;10.004;2024-02-26T04:57:10;26.70;;;11.87;;
239;SDS011;104;53.590;10.004;2024-02-26T04:59:37;28.30;;;11.30;;
239;SDS011;104;53.590;10.004;2024-02-26T05:02:05;29.40;;;12.10;;
239;SDS011;104;53.590;10.004;2024-02-26T05:04:33;28.37;;;11.97;;
239;SDS011;104;53.590;10.004;2024-02-26T05:07:00;27.00;;;11.93;;
239;SDS011;104;53.590;10.004;2024-02-26T05:09:27;27.60;;;11.70;;
239;SDS011;104;53.590;10.004;2024-02-26T05:11:54;27.73;;;11.90;;
239;SDS011;104;53.590;10.004;2024-02-26T05:14:23;23.80;;;10.80;;
239;SDS011;104;53.590;10.004;2024-02-26T05:16:50;28.50;;;11.90;;
239;SDS011;104;53.590;10.004;2024-02-26T05:19:17;27.33;;;10.80;;
239;SDS011;104;53.590;10.004;2024-02-26T05:21:44;29.40;;;12.80;;
239;SDS011;104;53.590;10.004;2024-02-26T05:24:14;24.93;;;11.67;;
239;SDS011;104;53.590;10.004;2024-02-26T05:26:42;32.50;;;11.83;;
239;SDS011;104;53.590;10.004;2024-02-26T05:29:09;31.47;;;12.57;;
239;SDS011;104;53.590;10.004;2024-02-26T05:31:38;29.23;;;12.30;;
239;SDS011;104;53.590;10.004;2024-02-26T05:34:05;31.10;;;12.47;;
239;SDS011;104;53.590;10.004;2024-02-26T05:36:33;25.93;;;11.97;;
239;SDS011;104;53.590;10.004;2024-02-26T05:39:00;27.77;;;11.37;;
239;SDS011;104;53.590;10.004;2024-02-26T05:41:28;24.00;;;11.40;;
239;SDS011;104;53.590;10.004;2024-02-26T05:43:56;28.00;;;11.70;;
239;SDS011;104;53.590;10.004;2024-02-26T05:46:23;25.17;;;11.17;;
239;SDS011;104;53.590;10.004;2024-02-26T05:48:53;21.80;;;10.70;;
239;SDS011;104;53.590;10.004;2024-02-26T05:51:20;29.03;;;12.40;;
239;SDS011;104;53.590;10.004;2024-02-26T05:53:47;30.63;;;11.20;;
239;SDS011;104;53.590;10.004;2024-02-26T05:56:19;26.07;;;11.87;;
239;SDS011;104;53.590;10.004;2024-02-26T05:58:46;32.00;;;12.10;;
239;SDS011;104;53.590;10.004;2024-02-26T06:01:15;25.17;;;11.13;;
239;SDS011;104;53.590;10.004;2024-02-26T06:03:42;30.20;;;12.57;;
239;SDS011;104;53.590;10.004;2024-02-26T06:06:11;26.50;;;11.50;;
239;SDS011;104;53.590;10.004;2024-02-26T06:08:40;33.70;;;13.33;;
239;SDS011;104;53.590;10.004;2024-02-26T06:11:07;33.03;;;13.57;;
239;SDS011;104;53.590;10.004;2024-02-26T06:13:34;28.93;;;12.90;;
239;SDS011;104;53.590;10.004;2024-02-26T06:16:02;32.63;;;12.80;;
239;SDS011;104;53.590;10.004;2024-02-26T06:18:30;28.57;;;11.90;;
239;SDS011;104;53.590;10.004;2024-02-26T06:20:57;26.50;;;11.30;;
239;SDS011;104;53.590;10.004;2024-02-26T06:23:26;23.30;;;11.40;;
239;SDS011;104;53.590;10.004;2024-02-26T06:25:53;28.90;;;11.30;;
239;SDS011;104;53.590;10.004;2024-02-26T06:28:20;30.00;;;12.10;;
239;SDS011;104;53.590;10.004;2024-02-26T06:30:48;32.57;;;12.40;;
239;SDS011;104;53.590;10.004;2024-02-26T06:33:15;32.97;;;12.23;;
239;SDS011;104;53.590;10.004;2024-02-26T06:35:42;26.83;;;11.97;;
239;SDS011;104;53.590;10.004;2024-02-26T06:38:10;27.30;;;11.93;;
239;SDS011;104;53.590;10.004;2024-02-26T06:40:40;27.50;;;11.83;;
239;SDS011;104;53.590;10.004;2024-02-26T06:43:07;28.70;;;12.10;;
239;SDS011;104;53.590;10.004;2024-02-26T06:45:34;33.00;;;12.83;;
239;SDS011;104;53.590;10.004;2024-02-26T06:48:02;30.17;;;12.50;;
239;SDS011;104;53.590;10.004;2024-02-26T06:50:29;31.63;;;12.60;;
239;SDS011;104;53.590;10.004;2024-02-26T06:52:57;26.00;;;10.97;;
239;SDS011;104;53.590;10.004;2024-02-26T06:55:24;36.07;;;12.70;;
239;SDS011;104;53.590;10.004;2024-02-26T06:57:52;32.13;;;13.30;;
239;SDS011;104;53.590;10.004;2024-02-26T07:00:19;31.97;;;12.97;;
239;SDS011;104;53.590;10.004;2024-02-26T07:02:47;29.10;;;12.30;;
239;SDS011;104;53.590;10.004;2024-02-26T07:05:14;23.87;;;10.90;;
239;SDS011;104;53.590;10.004;2024-02-26T07:07:42;24.63;;;10.70;;
239;SDS011;104;53.590;10.004;2024-02-26T07:10:10;25.23;;;10.97;;
239;SDS011;104;53.590;10.004;2024-02-26T07:12:37;23.10;;;10.60;;
239;SDS011;104;53.590;10.004;2024-02-26T07:15:06;29.43;;;10.90;;
239;SDS011;104;53.590;10.004;2024-02-26T07:17:34;26.80;;;11.80;;
239;SDS011;104;53.590;10.004;2024-02-26T07:20:01;25.00;;;11.30;;
239;SDS011;104;53.590;10.004;2024-02-26T07:22:29;27.40;;;10.73;;
239;SDS011;104;53.590;10.004;2024-02-26T07:24:56;28.50;;;12.07;;
239;SDS011;104;53.590;10.004;2024-02-26T07:27:24;26.90;;;11.63;;
239;SDS011;104;53.590;10.004;2024-02-26T07:29:51;24.67;;;11.23;;
239;SDS011;104;53.590;10.004;2024-02-26T07:32:20;29.87;;;10.97;;
239;SDS011;104;53.590;10.004;2024-02-26T07:34:47;34.67;;;11.27;;
239;SDS011;104;53.590;10.004;2024-02-26T07:37:15;24.47;;;11.50;;
239;SDS011;104;53.590;10.004;2024-02-26T07:39:42;25.17;;;10.40;;
239;SDS011;104;53.590;10.004;2024-02-26T07:42:10;27.80;;;11.53;;
239;SDS011;104;53.590;10.004;2024-02-26T07:44:37;24.20;;;10.63;;
239;SDS011;104;53.590;10.004;2024-02-26T07:47:08;26.97;;;11.13;;
239;SDS011;104;53.590;10.004;2024-02-26T07:49:36;25.53;;;11.20;;
239;SDS011;104;53.590;10.004;2024-02-26T07:52:04;20.87;;;10.30;;
239;SDS011;104;53.590;10.004;2024-02-26T07:54:31;27.70;;;12.10;;
239;SDS011;104;53.590;10.004;2024-02-26T07:56:59;23.50;;;11.40;;
239;SDS011;104;53.590;10.004;2024-02-26T07:59:26;21.47;;;10.50;;
239;SDS011;104;53.590;10.004;2024-02-26T08:01:54;21.13;;;10.40;;
239;SDS011;104;53.590;10.004;2024-02-26T08:04:21;21.40;;;10.70;;
239;SDS011;104;53.590;10.004;2024-02-26T08:06:50;24.80;;;11.50;;
239;SDS011;104;53.590;10.004;2024-02-26T08:09:17;25.70;;;11.57;;
239;SDS011;104;53.590;10.004;2024-02-26T08:11:45;20.13;;;9.43;;
239;SDS011;104;53.590;10.004;2024-02-26T08:14:12;23.47;;;10.90;;
239;SDS011;104;53.590;10.004;2024-02-26T08:16:40;26.60;;;10.50;;
239;SDS011;104;53.590;10.004;2024-02-26T08:19:07;21.43;;;10.07;;
239;SDS011;104;53.590;10.004;2024-02-26T08:21:35;26.17;;;10.13;;
239;SDS011;104;53.590;10.004;2024-02-26T08:24:06;21.30;;;10.17;;
239;SDS011;104;53.590;10.004;2024-02-26T08:26:33;22.10;;;10.33;;
239;SDS011;104;53.590;10.004;2024-02-26T08:29:01;19.40;;;9.30;;
239;SDS011;104;53.590;10.004;2024-02-26T08:31:28;21.93;;;9.97;;
239;SDS011;104;53.590;10.004;2024-02-26T08:33:55;20.53;;;10.27;;
239;SDS011;104;53.590;10.004;2024-02-26T08:36:23;23.17;;;11.27;;
239;SDS011;104;53.590;10.004;2024-02-26T08:38:50;25.77;;;11.53;;
239;SDS011;104;53.590;10.004;2024-02-26T08:41:19;27.53;;;11.30;;
239;SDS011;104;53.590;10.004;2024-02-26T08:43:46;22.37;;;11.23;;
239;SDS011;104;53.590;10.004;2024-02-26T08:46:13;21.90;;;10.40;;
239;SDS011;104;53.590;10.004;2024-02-26T08:48:43;22.87;;;10.90;;
239;SDS011;104;53.590;10.004;2024-02-26T08:51:11;24.10;;;11.20;;
239;SDS011;104;53.590;10.004;2024-02-26T08:53:38;23.83;;;10.40;;
239;SDS011;104;53.590;10.004;2024-02-26T08:56:06;28.67;;;11.73;;
239;SDS011;104;53.590;10.004;2024-02-26T08:58:36;24.37;;;12.57;;
239;SDS011;104;53.590;10.004;2024-02-26T09:01:03;27.73;;;12.03;;
239;SDS011;104;53.590;10.004;2024-02-26T09:03:32;25.43;;;11.70;;
239;SDS011;104;53.590;10.004;2024-02-26T09:05:59;20.33;;;10.57;;
239;SDS011;104;53.590;10.004;2024-02-26T09:08:27;24.07;;;11.90;;
239;SDS011;104;53.590;10.004;2024-02-26T09:10:54;20.00;;;9.87;;
239;SDS011;104;53.590;10.004;2024-02-26T09:13:22;22.17;;;10.80;;
239;SDS011;104;53.590;10.004;2024-02-26T09:15:51;26.13;;;11.67;;
239;SDS011;104;53.590;10.004;2024-02-26T09:18:18;20.33;;;10.03;;
239;SDS011;104;53.590;10.004;2024-02-26T09:20:45;19.27;;;9.73;;
239;SDS011;104;53.590;10.004;2024-02-26T09:23:13;20.90;;;9.40;;
239;SDS011;104;53.590;10.004;2024-02-26T09:25:40;17.50;;;8.67;;
239;SDS011;104;53.590;10.004;2024-02-26T09:28:09;16.90;;;8.87;;
239;SDS011;104;53.590;10.004;2024-02-26T09:30:36;18.20;;;8.03;;
239;SDS011;104;53.590;10.004;2024-02-26T09:33:05;14.73;;;8.00;;
239;SDS011;104;53.590;10.004;2024-02-26T09:35:33;16.70;;;7.70;;
239;SDS011;104;53.590;10.004;2024-02-26T09:38:00;12.87;;;6.37;;
239;SDS011;104;53.590;10.004;2024-02-26T09:40:28;14.50;;;5.90;;
239;SDS011;104;53.590;10.004;2024-02-26T09:42:57;10.60;;;5.80;;
239;SDS011;104;53.590;10.004;2024-02-26T09:45:26;11.40;;;5.43;;
239;SDS011;104;53.590;10.004;2024-02-26T09:47:55;10.00;;;5.53;;
239;SDS011;104;53.590;10.004;2024-02-26T09:50:25;9.30;;;5.63;;
239;SDS011;104;53.590;10.004;2024-02-26T09:52:52;9.50;;;5.80;;
239;SDS011;104;53.590;10.004;2024-02-26T09:55:22;8.47;;;5.30;;
239;SDS011;104;53.590;10.004;2024-02-26T09:57:51;11.67;;;6.03;;
239;SDS011;104;53.590;10.004;2024-02-26T10:00:18;16.47;;;6.50;;
239;SDS011;104;53.590;10.004;2024-02-26T10:23:34;9.30;;;5.60;;
239;SDS011;104;53.590;10.004;2024-02-26T10:26:01;8.30;;;4.87;;
239;SDS011;104;53.590;10.004;2024-02-26T10:28:29;6.67;;;4.63;;
239;SDS011;104;53.590;10.004;2024-02-26T10:30:56;9.70;;;4.83;;
239;SDS011;104;53.590;10.004;2024-02-26T10:33:24;12.10;;;5.30;;
239;SDS011;104;53.590;10.004;2024-02-26T10:35:52;8.30;;;5.27;;
239;SDS011;104;53.590;10.004;2024-02-26T10:38:20;10.50;;;5.30;;
239;SDS011;104;53.590;10.004;2024-02-26T10:40:50;9.00;;;4.93;;
239;SDS011;104;53.590;10.004;2024-02-26T10:43:17;15.97;;;5.80;;
239;SDS011;104;53.590;10.004;2024-02-26T10:45:45;7.70;;;4.63;;
239;SDS011;104;53.590;10.004;2024-02-26T10:48:13;30.77;;;6.23;;
239;SDS011;104;53.590;10.004;2024-02-26T10:50:41;12.30;;;4.80;;
239;SDS011;104;53.590;10.004;2024-02-26T10:53:12;17.10;;;5.47;;
239;SDS011;104;53.590;10.004;2024-02-26T10:55:41;22.03;;;11.10;;
239;SDS011;104;53.590;10.004;2024-02-26T10:58:11;8.67;;;4.90;;
239;SDS011;104;53.590;10.004;2024-02-26T11:00:39;14.23;;;5.43;;
239;SDS011;104;53.590;10.004;2024-02-26T11:03:06;165.27;;;61.73;;
239;SDS011;104;53.590;10.004;2024-02-26T11:05:35;50.63;;;20.67;;
239;SDS011;104;53.590;10.004;2024-02-26T11:08:03;18.57;;;8.17;;
239;SDS011;104;53.590;10.004;2024-02-26T11:10:32;11.97;;;6.00;;
239;SDS011;104;53.590;10.004;2024-02-26T11:12:59;14.00;;;5.27;;
239;SDS011;104;53.590;10.004;2024-02-26T11:15:29;10.20;;;5.30;;
239;SDS011;104;53.590;10.004;2024-02-26T11:17:58;16.07;;;8.47;;
239;SDS011;104;53.590;10.004;2024-02-26T11:20:27;16.33;;;8.37;;
239;SDS011;104;53.590;10.004;2024-02-26T11:22:56;6.13;;;4.00;;
239;SDS011;104;53.590;10.004;2024-02-26T11:25:23;7.80;;;4.90;;
239;SDS011;104;53.590;10.004;2024-02-26T11:27:51;8.37;;;5.20;;
239;SDS011;104;53.590;10.004;2024-02-26T11:30:19;6.73;;;4.70;;
239;SDS011;104;53.590;10.004;2024-02-26T11:32:49;8.87;;;5.13;;
239;SDS011;104;53.590;10.004;2024-02-26T11:35:17;10.77;;;4.40;;
239;SDS011;104;53.590;10.004;2024-02-26T11:37:51;6.73;;;4.20;;
239;SDS011;104;53.590;10.004;2024-02-26T11:40:18;9.30;;;4.93;;
239;SDS011;104;53.590;10.004;2024-02-26T11:42:45;7.07;;;4.07;;
239;SDS011;104;53.590;10.004;2024-02-26T11:48:02;8.77;;;4.50;;
239;SDS011;104;53.590;10.004;2024-02-26T11:50:34;6.37;;;3.83;;
239;SDS011;104;53.590;10.004;2024-02-26T11:53:20;6.10;;;3.70;;
239;SDS011;104;53.590;10.004;2024-02-26T11:55:48;14.17;;;4.37;;
239;SDS011;104;53.590;10.004;2024-02-26T11:58:15;19.47;;;4.90;;
239;SDS011;104;53.590;10.004;2024-02-26T12:00:43;8.53;;;4.20;;
239;SDS011;104;53.590;10.004;2024-02-26T12:03:12;13.10;;;4.10;;
239;SDS011;104;53.590;10.004;2024-02-26T12:05:40;5.07;;;3.80;;
239;SDS011;104;53.590;10.004;2024-02-26T12:08:08;9.73;;;5.20;;
239;SDS011;104;53.590;10.004;2024-02-26T12:10:36;9.60;;;4.50;;
239;SDS011;104;53.590;10.004;2024-02-26T12:13:05;7.93;;;4.53;;
239;SDS011;104;53.590;10.004;2024-02-26T12:15:35;9.27;;;4.90;;
239;SDS011;104;53.590;10.004;2024-02-26T12:18:03;10.00;;;5.60;;
239;SDS011;104;53.590;10.004;2024-02-26T12:23:01;7.40;;;5.20;;
239;SDS011;104;53.590;10.004;2024-02-26T12:25:30;6.13;;;4.33;;
239;SDS011;104;53.590;10.004;2024-02-26T12:27:58;10.23;;;4.77;;
239;SDS011;104;53.590;10.004;2024-02-26T12:30:25;8.63;;;5.07;;
239;SDS011;104;53.590;10.004;2024-02-26T12:32:55;16.53;;;6.70;;
239;SDS011;104;53.590;10.004;2024-02-26T12:35:24;8.90;;;4.80;;
239;SDS011;104;53.590;10.004;2024-02-26T12:37:51;30.30;;;9.33;;
239;SDS011;104;53.590;10.004;2024-02-26T12:40:21;9.90;;;4.73;;
239;SDS011;104;53.590;10.004;2024-02-26T12:42:48;6.77;;;4.00;;
239;SDS011;104;53.590;10.004;2024-02-26T12:45:18;8.47;;;4.70;;
239;SDS011;104;53.590;10.004;2024-02-26T12:47:45;11.03;;;4.17;;
239;SDS011;104;53.590;10.004;2024-02-26T12:50:13;6.57;;;3.93;;
239;SDS011;104;53.590;10.004;2024-02-26T12:52:41;8.73;;;4.53;;
239;SDS011;104;53.590;10.004;2024-02-26T12:55:10;10.20;;;4.60;;
239;SDS011;104;53.590;10.004;2024-02-26T12:57:39;4.53;;;3.60;;
239;SDS011;104;53.590;10.004;2024-02-26T13:00:11;12.50;;;4.03;;
239;SDS011;104;53.590;10.004;2024-02-26T13:02:39;5.10;;;3.60;;
239;SDS011;104;53.590;10.004;2024-02-26T13:05:11;8.40;;;4.37;;
239;SDS011;104;53.590;10.004;2024-02-26T13:07:40;7.40;;;4.07;;
239;SDS011;104;53.590;10.004;2024-02-26T13:10:09;7.60;;;4.20;;
239;SDS011;104;53.590;10.004;2024-02-26T13:12:42;12.40;;;3.53;;
239;SDS011;104;53.590;10.004;2024-02-26T13:15:14;10.10;;;4.27;;
239;SDS011;104;53.590;10.004;2024-02-26T13:17:42;31.83;;;16.50;;
239;SDS011;104;53.590;10.004;2024-02-26T13:20:10;7.40;;;3.63;;
239;SDS011;104;53.590;10.004;2024-02-26T13:22:38;6.80;;;3.40;;
239;SDS011;104;53.590;10.004;2024-02-26T13:25:06;5.37;;;3.00;;
239;SDS011;104;53.590;10.004;2024-02-26T13:27:34;4.27;;;2.80;;
239;SDS011;104;53.590;10.004;2024-02-26T13:30:08;4.47;;;3.20;;
239;SDS011;104;53.590;10.004;2024-02-26T13:32:36;5.63;;;3.80;;
239;SDS011;104;53.590;10.004;2024-02-26T13:35:04;5.63;;;2.63;;
239;SDS011;104;53.590;10.004;2024-02-26T13:37:34;4.13;;;2.80;;
239;SDS011;104;53.590;10.004;2024-02-26T13:43:05;3.10;;;2.60;;
239;SDS011;104;53.590;10.004;2024-02-26T13:45:35;7.40;;;3.37;;
239;SDS011;104;53.590;10.004;2024-02-26T13:48:03;14.07;;;3.10;;
239;SDS011;104;53.590;10.004;2024-02-26T13:50:30;6.03;;;3.20;;
239;SDS011;104;53.590;10.004;2024-02-26T13:52:58;3.60;;;2.37;;
239;SDS011;104;53.590;10.004;2024-02-26T13:55:25;4.40;;;2.63;;
239;SDS011;104;53.590;10.004;2024-02-26T13:57:53;8.50;;;3.80;;
239;SDS011;104;53.590;10.004;2024-02-26T14:00:20;7.43;;;3.20;;
239;SDS011;104;53.590;10.004;2024-02-26T14:02:49;12.00;;;4.90;;
239;SDS011;104;53.590;10.004;2024-02-26T14:05:17;17.77;;;7.03;;
239;SDS011;104;53.590;10.004;2024-02-26T14:07:44;15.67;;;7.60;;
239;SDS011;104;53.590;10.004;2024-02-26T14:10:11;18.23;;;8.23;;
239;SDS011;104;53.590;10.004;2024-02-26T14:12:41;13.20;;;8.20;;
239;SDS011;104;53.590;10.004;2024-02-26T14:15:08;13.00;;;7.23;;
239;SDS011;104;53.590;10.004;2024-02-26T14:17:37;12.53;;;7.40;;
239;SDS011;104;53.590;10.004;2024-02-26T14:20:06;15.03;;;7.77;;
239;SDS011;104;53.590;10.004;2024-02-26T14:22:34;20.57;;;7.30;;
239;SDS011;104;53.590;10.004;2024-02-26T14:25:01;17.27;;;8.70;;
239;SDS011;104;53.590;10.004;2024-02-26T14:27:28;14.80;;;6.50;;
239;SDS011;104;53.590;10.004;2024-02-26T14:29:56;12.43;;;6.80;;
239;SDS011;104;53.590;10.004;2024-02-26T14:32:23;11.23;;;6.60;;
239;SDS011;104;53.590;10.004;2024-02-26T14:34:50;12.27;;;7.47;;
239;SDS011;104;53.590;10.004;2024-02-26T14:37:19;12.00;;;6.80;;
239;SDS011;104;53.590;10.004;2024-02-26T14:39:46;16.30;;;7.50;;
239;SDS011;104;53.590;10.004;2024-02-26T14:42:16;13.77;;;7.57;;
239;SDS011;104;53.590;10.004;2024-02-26T14:44:44;12.27;;;6.97;;
239;SDS011;104;53.590;10.004;2024-02-26T14:47:12;13.20;;;7.43;;
239;SDS011;104;53.590;10.004;2024-02-26T14:49:40;14.57;;;8.37;;
239;SDS011;104;53.590;10.004;2024-02-26T14:52:07;18.17;;;8.20;;
239;SDS011;104;53.590;10.004;2024-02-26T14:54:35;15.70;;;8.47;;
239;SDS011;104;53.590;10.004;2024-02-26T14:57:04;19.10;;;10.17;;
239;SDS011;104;53.590;10.004;2024-02-26T14:59:31;16.80;;;8.80;;
239;SDS011;104;53.590;10.004;2024-02-26T15:01:59;18.30;;;8.97;;
239;SDS011;104;53.590;10.004;2024-02-26T15:04:26;15.20;;;8.87;;
239;SDS011;104;53.590;10.004;2024-02-26T15:06:53;15.23;;;9.17;;
239;SDS011;104;53.590;10.004;2024-02-26T15:09:21;17.27;;;9.00;;
239;SDS011;104;53.590;10.004;2024-02-26T15:11:49;16.50;;;9.23;;
239;SDS011;104;53.590;10.004;2024-02-26T15:14:16;20.13;;;9.07;;
239;SDS011;104;53.590;10.004;2024-02-26T15:16:43;19.20;;;9.97;;
239;SDS011;104;53.590;10.004;2024-02-26T15:19:11;20.30;;;10.00;;
239;SDS011;104;53.590;10.004;2024-02-26T15:21:42;19.53;;;10.27;;
239;SDS011;104;53.590;10.004;2024-02-26T15:24:09;21.57;;;10.77;;
239;SDS011;104;53.590;10.004;2024-02-26T15:26:37;16.33;;;9.53;;
239;SDS011;104;53.590;10.004;2024-02-26T15:29:06;17.20;;;9.80;;
239;SDS011;104;53.590;10.004;2024-02-26T15:31:34;17.83;;;9.33;;
239;SDS011;104;53.590;10.004;2024-02-26T15:34:01;17.70;;;9.73;;
239;SDS011;104;53.590;10.004;2024-02-26T15:36:29;16.73;;;9.50;;
239;SDS011;104;53.590;10.004;2024-02-26T15:38:56;19.93;;;10.03;;
239;SDS011;104;53.590;10.004;2024-02-26T15:41:23;22.00;;;10.77;;